aviador You're here:

KHEY Decoded Metar

in _UNIDENTIFIED
Report Time2017-08-18 00:58:00
UTC Time2017-08-18 01:02:52
Flight Rules vfr VFR
WindCalm
Visibility9999 m
Phenomena:N/A
Clouds:N/A
Expected CloudBase > 800 ft AGL from Temp-Dew spread
CeilingNone
Temp27°C (ISA +13)
Dew Point25°C (89% RH)
Heat Index30.6°C
QNH1016 hPa
Density Alt2,090 ft
Elevation318 ft
Report Wrong Elevation
Raw Report
METAR KHEY 180058Z AUTO 00000KT 10SM CLR 27/25 A3001 RMK AO2 SLP161
T02690252=

Extra information for KHEY:More info

Metar Taf Metar & Taf Last 4 Metars F.Rules Stats Wind Profile Meteogram Temp Stats Metar ALERT Operation Metar Decoded Social comments